createdAt,value
2022-10-23T00:01:50.294Z,-82
2022-10-23T00:04:22.389Z,-82
2022-10-23T00:06:51.498Z,-82
2022-10-23T00:09:24.334Z,-84
2022-10-23T00:11:54.143Z,-82
2022-10-23T00:14:25.639Z,-83
2022-10-23T00:16:54.505Z,-82
2022-10-23T00:19:23.130Z,-82
2022-10-23T00:21:51.601Z,-82
2022-10-23T00:24:21.489Z,-83
2022-10-23T00:26:51.645Z,-83
2022-10-23T00:29:20.145Z,-82
2022-10-23T00:31:48.667Z,-82
2022-10-23T00:34:17.082Z,-82
2022-10-23T00:36:46.499Z,-83
2022-10-23T00:39:15.592Z,-84
2022-10-23T00:41:45.801Z,-83
2022-10-23T00:45:07.290Z,-84
2022-10-23T00:47:38.247Z,-83
2022-10-23T00:50:08.163Z,-83
2022-10-23T00:52:43.976Z,-83
2022-10-23T00:55:12.785Z,-82
2022-10-23T00:57:47.019Z,-83
2022-10-23T01:00:20.892Z,-83
2022-10-23T01:02:49.602Z,-83
2022-10-23T01:05:18.921Z,-83
2022-10-23T01:07:55.650Z,-83
2022-10-23T01:10:36.094Z,-83
2022-10-23T01:13:15.400Z,-83
2022-10-23T01:15:53.794Z,-83
2022-10-23T01:18:28.952Z,-83
2022-10-23T01:21:06.729Z,-83
2022-10-23T01:24:09.588Z,-84
2022-10-23T01:26:56.771Z,-83
2022-10-23T01:29:37.490Z,-83
2022-10-23T01:32:11.876Z,-83
2022-10-23T01:34:55.336Z,-83
2022-10-23T01:37:30.694Z,-83
2022-10-23T01:40:06.530Z,-82
2022-10-23T01:42:42.850Z,-82
2022-10-23T01:45:20.482Z,-83
2022-10-23T01:47:51.881Z,-82
2022-10-23T01:50:24.517Z,-82
2022-10-23T01:52:53.316Z,-82
2022-10-23T01:55:25.819Z,-83
2022-10-23T01:57:55.808Z,-83
2022-10-23T02:00:25.744Z,-83
2022-10-23T02:02:57.265Z,-82
2022-10-23T02:05:29.062Z,-82
2022-10-23T02:07:59.133Z,-83
2022-10-23T02:10:42.876Z,-82
2022-10-23T02:13:20.220Z,-83
2022-10-23T02:15:55.422Z,-82
2022-10-23T02:18:39.290Z,-82
2022-10-23T02:21:13.510Z,-82
2022-10-23T02:23:53.835Z,-83
2022-10-23T02:26:31.733Z,-83
2022-10-23T02:29:07.915Z,-83
2022-10-23T02:31:38.070Z,-83
2022-10-23T02:34:06.671Z,-82
2022-10-23T02:36:35.139Z,-82
2022-10-23T02:39:03.620Z,-82
2022-10-23T02:41:42.675Z,-83
2022-10-23T02:44:29.964Z,-82
2022-10-23T02:47:20.848Z,-83
2022-10-23T02:50:00.601Z,-83
2022-10-23T02:52:41.765Z,-83
2022-10-23T02:55:30.044Z,-83
2022-10-23T02:58:08.191Z,-83
2022-10-23T03:00:43.907Z,-83
2022-10-23T03:03:20.446Z,-83
2022-10-23T03:05:49.009Z,-82
2022-10-23T03:08:17.558Z,-83
2022-10-23T03:10:46.393Z,-83
2022-10-23T03:13:14.937Z,-83
2022-10-23T03:15:43.585Z,-83
2022-10-23T03:18:13.540Z,-83
2022-10-23T03:20:42.200Z,-82
2022-10-23T03:23:14.324Z,-83
2022-10-23T03:25:42.814Z,-83
2022-10-23T03:28:11.280Z,-83
2022-10-23T03:30:39.877Z,-83
2022-10-23T03:33:08.482Z,-83
2022-10-23T03:35:38.648Z,-83
2022-10-23T03:38:07.175Z,-83
2022-10-23T03:40:35.752Z,-83
2022-10-23T03:43:04.246Z,-83
2022-10-23T03:45:32.782Z,-83
2022-10-23T03:48:01.398Z,-83
2022-10-23T03:50:29.898Z,-83
2022-10-23T03:52:59.871Z,-82
2022-10-23T03:55:28.783Z,-83
2022-10-23T03:57:57.268Z,-83
2022-10-23T04:00:25.753Z,-83
2022-10-23T04:02:54.175Z,-83
2022-10-23T04:05:22.712Z,-83
2022-10-23T04:07:51.183Z,-83
2022-10-23T04:10:21.252Z,-83
2022-10-23T04:12:49.703Z,-82
2022-10-23T04:15:18.501Z,-83
2022-10-23T04:17:46.982Z,-83
2022-10-23T04:20:15.691Z,-83
2022-10-23T04:22:45.518Z,-83
2022-10-23T04:25:14.689Z,-84
2022-10-23T04:27:44.959Z,-83
2022-10-23T04:30:14.860Z,-83
2022-10-23T04:32:43.371Z,-82
2022-10-23T04:35:11.858Z,-83
2022-10-23T04:37:40.600Z,-83
2022-10-23T04:40:10.920Z,-83
2022-10-23T04:42:39.542Z,-83
2022-10-23T04:45:10.594Z,-83
2022-10-23T04:47:39.174Z,-83
2022-10-23T04:50:09.106Z,-83
2022-10-23T04:52:37.673Z,-83
2022-10-23T04:55:09.263Z,-84
2022-10-23T04:57:37.792Z,-83
2022-10-23T05:00:12.125Z,-83
2022-10-23T05:02:40.870Z,-83
2022-10-23T05:05:10.480Z,-83
2022-10-23T05:07:40.021Z,-83
2022-10-23T05:10:09.917Z,-83
2022-10-23T05:12:38.356Z,-83
2022-10-23T05:15:08.431Z,-83
2022-10-23T05:17:43.333Z,-83
2022-10-23T05:20:21.138Z,-83
2022-10-23T05:22:52.535Z,-83
2022-10-23T05:25:21.075Z,-82
2022-10-23T05:27:49.551Z,-83
2022-10-23T05:30:18.262Z,-82
2022-10-23T05:32:48.381Z,-83
2022-10-23T05:35:23.184Z,-83
2022-10-23T05:37:54.942Z,-83
2022-10-23T05:40:24.024Z,-83
2022-10-23T05:42:52.498Z,-83
2022-10-23T05:45:21.299Z,-83
2022-10-23T05:47:51.284Z,-83
2022-10-23T05:50:19.925Z,-83
2022-10-23T05:52:49.598Z,-83
2022-10-23T05:55:18.615Z,-83
2022-10-23T05:57:47.133Z,-83
2022-10-23T06:00:15.953Z,-83
2022-10-23T06:02:44.502Z,-82
2022-10-23T06:05:14.402Z,-83
2022-10-23T06:07:43.112Z,-83
2022-10-23T06:10:11.958Z,-83
2022-10-23T06:12:40.452Z,-82
2022-10-23T06:15:11.248Z,-82
2022-10-23T06:17:40.043Z,-83
2022-10-23T06:20:10.459Z,-85
2022-10-23T06:22:40.688Z,-84
2022-10-23T06:25:10.981Z,-84
2022-10-23T06:27:39.780Z,-84
2022-10-23T06:30:10.201Z,-84
2022-10-23T06:32:38.673Z,-84
2022-10-23T06:35:09.048Z,-84
2022-10-23T06:37:37.565Z,-85
2022-10-23T06:40:09.843Z,-85
2022-10-23T06:42:38.387Z,-83
2022-10-23T06:45:08.296Z,-82
2022-10-23T06:47:36.816Z,-83
2022-10-23T06:50:06.291Z,-85
2022-10-23T06:52:46.415Z,-85
2022-10-23T06:55:17.634Z,-85
2022-10-23T06:57:46.652Z,-85
2022-10-23T07:00:15.905Z,-83
2022-10-23T07:02:45.060Z,-84
2022-10-23T07:05:14.033Z,-84
2022-10-23T07:07:42.611Z,-84
2022-10-23T07:12:42.186Z,-86
2022-10-23T07:15:11.411Z,-83
2022-10-23T07:17:39.933Z,-84
2022-10-23T07:20:09.430Z,-84
2022-10-23T07:22:38.496Z,-83
2022-10-23T07:25:08.522Z,-84
2022-10-23T07:27:39.254Z,-85
2022-10-23T07:30:11.372Z,-84
2022-10-23T07:32:40.118Z,-85
2022-10-23T07:35:10.411Z,-86
2022-10-23T07:37:39.407Z,-85
2022-10-23T07:40:09.867Z,-85
2022-10-23T07:42:38.959Z,-85
2022-10-23T07:45:11.411Z,-84
2022-10-23T07:47:40.164Z,-85
2022-10-23T07:50:10.624Z,-85
2022-10-23T07:52:39.119Z,-85
2022-10-23T07:55:08.294Z,-84
2022-10-23T07:57:38.835Z,-85
2022-10-23T08:00:12.099Z,-85
2022-10-23T08:02:40.963Z,-85
2022-10-23T08:05:10.526Z,-83
2022-10-23T08:07:39.021Z,-84
2022-10-23T08:10:09.126Z,-84
2022-10-23T08:12:39.172Z,-84
2022-10-23T08:15:10.786Z,-84
2022-10-23T08:17:39.616Z,-84
2022-10-23T08:20:09.565Z,-84
2022-10-23T08:22:39.055Z,-84
2022-10-23T08:25:08.185Z,-84
2022-10-23T08:27:36.984Z,-83
2022-10-23T08:30:07.000Z,-83
2022-10-23T08:32:37.387Z,-85
2022-10-23T08:35:06.942Z,-84
2022-10-23T08:37:35.515Z,-83
2022-10-23T08:40:04.485Z,-84
2022-10-23T08:42:39.947Z,-84
2022-10-23T08:45:28.711Z,-84
2022-10-23T08:48:07.967Z,-83
2022-10-23T08:50:42.274Z,-84
2022-10-23T08:53:21.642Z,-84
2022-10-23T08:56:02.504Z,-83
2022-10-23T08:58:40.429Z,-83
2022-10-23T09:01:35.890Z,-83
2022-10-23T09:04:08.075Z,-84
2022-10-23T09:06:42.948Z,-83
2022-10-23T09:09:43.176Z,-84
2022-10-23T09:12:16.888Z,-84
2022-10-23T09:15:12.657Z,-84
2022-10-23T09:17:44.520Z,-84
2022-10-23T09:20:23.129Z,-84
2022-10-23T09:22:56.215Z,-83
2022-10-23T09:25:28.091Z,-83
2022-10-23T09:28:01.632Z,-83
2022-10-23T09:30:37.235Z,-84
2022-10-23T09:33:18.069Z,-84
2022-10-23T09:35:57.895Z,-83
2022-10-23T09:38:32.789Z,-83
2022-10-23T09:41:08.473Z,-84
2022-10-23T09:43:37.088Z,-82
2022-10-23T09:46:09.413Z,-83
2022-10-23T09:48:39.156Z,-83
2022-10-23T09:51:20.459Z,-83
2022-10-23T09:53:53.520Z,-84
2022-10-23T09:56:32.523Z,-84
2022-10-23T09:59:05.253Z,-83
2022-10-23T10:01:37.205Z,-84
2022-10-23T10:04:06.116Z,-84
2022-10-23T10:06:36.706Z,-84
2022-10-23T10:09:13.053Z,-83
2022-10-23T10:11:47.339Z,-84
2022-10-23T10:14:40.013Z,-85
2022-10-23T10:17:22.927Z,-84
2022-10-23T10:20:16.686Z,-84
2022-10-23T10:22:55.204Z,-84
2022-10-23T10:25:30.312Z,-83
2022-10-23T10:28:19.376Z,-84
2022-10-23T10:30:59.563Z,-83
2022-10-23T10:33:37.276Z,-83
2022-10-23T10:36:40.898Z,-85
2022-10-23T10:39:22.212Z,-85
2022-10-23T10:42:11.042Z,-86
2022-10-23T10:45:23.675Z,-86
2022-10-23T10:48:15.304Z,-85
2022-10-23T10:50:54.164Z,-85
2022-10-23T10:53:32.804Z,-86
2022-10-23T10:56:06.340Z,-86
2022-10-23T10:58:43.438Z,-86
2022-10-23T11:01:26.569Z,-85
2022-10-23T11:04:03.175Z,-85
2022-10-23T11:06:37.801Z,-91
2022-10-23T11:09:20.665Z,-91
2022-10-23T11:11:51.556Z,-90
2022-10-23T11:14:23.455Z,-90
2022-10-23T11:16:59.390Z,-90
2022-10-23T11:19:35.784Z,-90
2022-10-23T11:22:12.631Z,-88
2022-10-23T11:25:33.190Z,-89
2022-10-23T11:28:25.109Z,-89
2022-10-23T11:31:15.395Z,-89
2022-10-23T11:34:24.687Z,-89
2022-10-23T11:36:56.801Z,-88
2022-10-23T11:39:29.589Z,-86
2022-10-23T11:42:01.423Z,-84
2022-10-23T11:44:44.118Z,-85
2022-10-23T11:47:38.971Z,-85
2022-10-23T11:50:33.892Z,-85
2022-10-23T11:53:15.207Z,-86
2022-10-23T11:56:01.696Z,-86
2022-10-23T11:58:43.905Z,-85
2022-10-23T12:01:38.201Z,-85
2022-10-23T12:04:23.563Z,-85
2022-10-23T12:06:56.541Z,-85
2022-10-23T12:09:45.048Z,-85
2022-10-23T12:12:29.439Z,-85
2022-10-23T12:15:20.066Z,-86
2022-10-23T12:17:52.290Z,-85
2022-10-23T12:20:36.426Z,-85
2022-10-23T12:23:30.298Z,-85
2022-10-23T12:26:27.905Z,-89
2022-10-23T12:29:11.588Z,-86
2022-10-23T12:31:51.500Z,-86
2022-10-23T12:34:45.253Z,-84
2022-10-23T12:37:56.423Z,-85
2022-10-23T12:40:29.876Z,-85
2022-10-23T12:43:01.365Z,-84
2022-10-23T12:45:34.234Z,-85
2022-10-23T12:48:02.888Z,-85
2022-10-23T12:50:34.976Z,-83
2022-10-23T12:53:07.665Z,-84
2022-10-23T12:55:52.719Z,-84
2022-10-23T12:58:23.735Z,-84
2022-10-23T13:00:54.784Z,-83
2022-10-23T13:03:25.926Z,-83
2022-10-23T13:05:59.988Z,-83
2022-10-23T13:08:42.864Z,-84
2022-10-23T13:11:17.220Z,-83
2022-10-23T13:13:47.134Z,-84
2022-10-23T13:16:17.381Z,-84
2022-10-23T13:18:46.297Z,-83
2022-10-23T13:21:23.133Z,-84
2022-10-23T13:23:55.025Z,-84
2022-10-23T13:26:32.267Z,-84
2022-10-23T13:29:07.524Z,-84
2022-10-23T13:31:37.923Z,-83
2022-10-23T13:34:19.312Z,-84
2022-10-23T13:37:03.683Z,-83
2022-10-23T13:39:35.433Z,-84
2022-10-23T13:42:14.847Z,-83
2022-10-23T13:44:43.976Z,-83
2022-10-23T13:47:14.592Z,-84
2022-10-23T13:49:43.393Z,-83
2022-10-23T13:52:20.145Z,-84
2022-10-23T13:54:49.895Z,-84
2022-10-23T13:57:18.823Z,-84
2022-10-23T13:59:47.353Z,-84
2022-10-23T14:02:22.275Z,-84
2022-10-23T14:04:53.035Z,-84
2022-10-23T14:07:22.902Z,-84
2022-10-23T14:09:51.389Z,-84
2022-10-23T14:12:19.916Z,-84
2022-10-23T14:14:52.852Z,-84
2022-10-23T14:17:22.275Z,-84
2022-10-23T14:19:51.146Z,-84
2022-10-23T14:22:19.662Z,-83
2022-10-23T14:24:49.670Z,-83
2022-10-23T14:27:18.133Z,-84
2022-10-23T14:29:46.856Z,-84
2022-10-23T14:32:15.503Z,-85
2022-10-23T14:34:46.050Z,-84
2022-10-23T14:37:14.599Z,-84
2022-10-23T14:39:47.482Z,-84
2022-10-23T14:42:19.686Z,-83
2022-10-23T14:44:50.142Z,-84
2022-10-23T14:47:19.834Z,-84
2022-10-23T14:49:53.383Z,-84
2022-10-23T14:52:21.988Z,-84
2022-10-23T14:54:52.325Z,-84
2022-10-23T14:57:23.080Z,-84
2022-10-23T14:59:51.635Z,-84
2022-10-23T15:02:20.101Z,-84
2022-10-23T15:04:48.559Z,-84
2022-10-23T15:07:17.584Z,-84
2022-10-23T15:09:46.078Z,-84
2022-10-23T15:12:14.606Z,-85
2022-10-23T15:14:44.569Z,-85
2022-10-23T15:17:15.627Z,-84
2022-10-23T15:19:44.420Z,-85
2022-10-23T15:22:12.889Z,-84
2022-10-23T15:24:41.359Z,-84
2022-10-23T15:29:38.666Z,-84
2022-10-23T15:32:11.286Z,-84
2022-10-23T15:34:42.769Z,-84
2022-10-23T15:37:12.274Z,-85
2022-10-23T15:39:41.078Z,-84
2022-10-23T15:42:11.099Z,-84
2022-10-23T15:44:42.279Z,-84
2022-10-23T15:47:12.741Z,-85
2022-10-23T15:49:41.396Z,-84
2022-10-23T15:52:11.273Z,-84
2022-10-23T15:54:39.958Z,-85
2022-10-23T15:57:08.493Z,-85
2022-10-23T15:59:37.307Z,-85
2022-10-23T16:02:06.209Z,-83
2022-10-23T16:04:36.739Z,-83
2022-10-23T16:07:05.303Z,-83
2022-10-23T16:09:34.031Z,-82
2022-10-23T16:12:02.676Z,-86
2022-10-23T16:14:31.171Z,-82
2022-10-23T16:16:59.673Z,-83
2022-10-23T16:19:28.456Z,-82
2022-10-23T16:21:58.386Z,-82
2022-10-23T16:24:27.198Z,-81
2022-10-23T16:26:57.556Z,-83
2022-10-23T16:29:29.500Z,-82
2022-10-23T16:31:59.904Z,-82
2022-10-23T16:34:28.533Z,-82
2022-10-23T16:36:58.389Z,-82
2022-10-23T16:39:27.061Z,-82
2022-10-23T16:41:55.685Z,-82
2022-10-23T16:44:24.275Z,-81
2022-10-23T16:46:52.756Z,-82
2022-10-23T16:49:21.230Z,-82
2022-10-23T16:51:49.720Z,-83
2022-10-23T16:54:19.761Z,-83
2022-10-23T16:56:48.550Z,-83
2022-10-23T16:59:17.018Z,-83
2022-10-23T17:01:45.708Z,-83
2022-10-23T17:04:14.277Z,-82
2022-10-23T17:06:42.954Z,-81
2022-10-23T17:09:11.643Z,-82
2022-10-23T17:11:45.228Z,-82
2022-10-23T17:14:17.572Z,-82
2022-10-23T17:16:49.358Z,-82
2022-10-23T17:19:43.636Z,-82
2022-10-23T17:22:13.321Z,-82
2022-10-23T17:24:46.199Z,-82
2022-10-23T17:27:19.161Z,-82
2022-10-23T17:29:47.732Z,-82
2022-10-23T17:32:16.324Z,-82
2022-10-23T17:34:44.866Z,-83
2022-10-23T17:37:14.420Z,-82
2022-10-23T17:39:43.455Z,-85
2022-10-23T17:42:11.917Z,-82
2022-10-23T17:44:41.847Z,-83
2022-10-23T17:47:10.489Z,-83
2022-10-23T17:49:41.588Z,-83
2022-10-23T17:52:14.968Z,-83
2022-10-23T17:54:43.449Z,-83
2022-10-23T17:57:12.025Z,-84
2022-10-23T17:59:42.020Z,-83
2022-10-23T18:02:13.848Z,-83
2022-10-23T18:04:42.534Z,-83
2022-10-23T18:07:10.935Z,-83
2022-10-23T18:09:39.634Z,-83
2022-10-23T18:12:08.181Z,-83
2022-10-23T18:14:37.804Z,-84
2022-10-23T18:17:07.864Z,-84
2022-10-23T18:19:36.617Z,-84
2022-10-23T18:22:05.776Z,-82
2022-10-23T18:24:34.597Z,-83
2022-10-23T18:27:03.233Z,-83
2022-10-23T18:29:31.829Z,-82
2022-10-23T18:32:00.334Z,-83
2022-10-23T18:34:30.170Z,-83
2022-10-23T18:37:00.596Z,-83
2022-10-23T18:39:29.492Z,-82
2022-10-23T18:41:59.783Z,-82
2022-10-23T18:44:29.455Z,-82
2022-10-23T18:46:59.617Z,-83
2022-10-23T18:49:30.110Z,-83
2022-10-23T18:51:59.577Z,-82
2022-10-23T18:54:28.213Z,-83
2022-10-23T18:56:56.870Z,-83
2022-10-23T18:59:25.617Z,-82
2022-10-23T19:01:54.390Z,-82
2022-10-23T19:04:23.155Z,-82
2022-10-23T19:06:53.523Z,-83
2022-10-23T19:09:22.139Z,-82
2022-10-23T19:11:50.889Z,-82
2022-10-23T19:14:19.569Z,-82
2022-10-23T19:17:00.636Z,-83
2022-10-23T19:19:34.782Z,-83
2022-10-23T19:22:06.201Z,-83
2022-10-23T19:24:39.433Z,-83
2022-10-23T19:27:08.978Z,-82
2022-10-23T19:29:43.653Z,-82
2022-10-23T19:32:12.688Z,-82
2022-10-23T19:34:41.982Z,-83
2022-10-23T19:37:11.813Z,-83
2022-10-23T19:39:40.279Z,-84
2022-10-23T19:42:09.116Z,-83
2022-10-23T19:44:37.518Z,-83
2022-10-23T19:47:06.145Z,-84
2022-10-23T19:49:34.638Z,-83
2022-10-23T19:52:03.222Z,-83
2022-10-23T19:54:33.587Z,-83
2022-10-23T19:57:02.553Z,-84
2022-10-23T19:59:31.083Z,-84
2022-10-23T20:01:59.642Z,-84
2022-10-23T20:04:29.017Z,-83
2022-10-23T20:06:57.866Z,-84
2022-10-23T20:09:26.398Z,-84
2022-10-23T20:11:56.274Z,-84
2022-10-23T20:14:24.727Z,-83
2022-10-23T20:16:55.858Z,-84
2022-10-23T20:19:25.104Z,-83
2022-10-23T20:21:53.620Z,-84
2022-10-23T20:24:23.329Z,-84
2022-10-23T20:26:57.131Z,-83
2022-10-23T20:29:26.406Z,-83
2022-10-23T20:31:54.922Z,-82
2022-10-23T20:34:23.896Z,-82
2022-10-23T20:36:52.569Z,-81
2022-10-23T20:39:25.639Z,-82
2022-10-23T20:41:57.216Z,-82
2022-10-23T20:44:26.110Z,-81
2022-10-23T20:46:55.310Z,-82
2022-10-23T20:49:24.639Z,-82
2022-10-23T20:51:55.716Z,-82
2022-10-23T20:54:26.073Z,-82
2022-10-23T20:56:56.997Z,-81
2022-10-23T20:59:26.572Z,-82
2022-10-23T21:01:57.245Z,-81
2022-10-23T21:04:29.447Z,-82
2022-10-23T21:07:16.439Z,-82
2022-10-23T21:09:44.985Z,-81
2022-10-23T21:12:14.935Z,-82
2022-10-23T21:14:43.422Z,-82
2022-10-23T21:17:16.712Z,-81
2022-10-23T21:19:45.314Z,-81
2022-10-23T21:22:13.749Z,-82
2022-10-23T21:24:42.380Z,-81
2022-10-23T21:27:10.984Z,-81
2022-10-23T21:29:41.202Z,-81
2022-10-23T21:32:09.666Z,-81
2022-10-23T21:34:38.444Z,-81
2022-10-23T21:37:12.883Z,-81
2022-10-23T21:39:43.067Z,-81
2022-10-23T21:42:12.186Z,-81
2022-10-23T21:44:42.259Z,-81
2022-10-23T21:47:10.839Z,-81
2022-10-23T21:49:41.745Z,-81
2022-10-23T21:52:10.201Z,-81
2022-10-23T21:54:38.669Z,-82
2022-10-23T21:57:13.922Z,-82
2022-10-23T21:59:43.716Z,-82
2022-10-23T22:02:12.429Z,-82
2022-10-23T22:04:41.989Z,-83
2022-10-23T22:07:15.047Z,-82
2022-10-23T22:09:46.644Z,-83
2022-10-23T22:12:15.062Z,-83
2022-10-23T22:14:45.164Z,-83
2022-10-23T22:17:13.622Z,-83
2022-10-23T22:19:42.324Z,-83
2022-10-23T22:22:10.798Z,-83
2022-10-23T22:24:39.298Z,-84
2022-10-23T22:27:07.813Z,-83
2022-10-23T22:29:36.413Z,-84
2022-10-23T22:32:06.715Z,-84
2022-10-23T22:34:52.340Z,-85
2022-10-23T22:37:21.549Z,-83
2022-10-23T22:39:52.882Z,-83
2022-10-23T22:42:21.819Z,-83
2022-10-23T22:44:50.321Z,-83
2022-10-23T22:47:20.221Z,-83
2022-10-23T22:49:48.661Z,-83
2022-10-23T22:52:17.111Z,-84
2022-10-23T22:54:45.582Z,-83
2022-10-23T22:57:14.014Z,-83
2022-10-23T22:59:42.703Z,-83
2022-10-23T23:02:11.125Z,-83
2022-10-23T23:04:40.984Z,-83
2022-10-23T23:07:12.673Z,-83
2022-10-23T23:09:44.421Z,-83
2022-10-23T23:12:15.673Z,-83
2022-10-23T23:14:44.446Z,-83
2022-10-23T23:17:12.912Z,-83
2022-10-23T23:19:42.722Z,-82
2022-10-23T23:22:11.205Z,-83
2022-10-23T23:24:39.660Z,-83
2022-10-23T23:27:08.109Z,-83
2022-10-23T23:29:36.566Z,-83
2022-10-23T23:32:06.247Z,-82
2022-10-23T23:34:34.749Z,-83
2022-10-23T23:37:08.705Z,-84
2022-10-23T23:39:37.191Z,-84
2022-10-23T23:42:06.242Z,-83
2022-10-23T23:44:38.940Z,-83
2022-10-23T23:47:14.626Z,-82
2022-10-23T23:49:43.174Z,-83
2022-10-23T23:52:13.107Z,-82
2022-10-23T23:54:41.628Z,-83
2022-10-23T23:57:11.572Z,-84
2022-10-23T23:59:41.398Z,-83
